Dynawave — 3FEH6 — position and weather

sailwx.info

Track history (hours):
 
Tides and Currents Weather Stations Pressure Air Temp Water Temp Dewpoint Dewpoint Depression Visibility Wind Speed Wind Dir Waves Ship Positions

Dynawave

Last reported at 2015-Apr-17 20:19 UTC. Time now 2015-May-03 13:51 UTC.
Position N 24°31' E 119°29'.
Warning: this ship's position is 15 days out of date.

Length 209 m; draft 9.9 m.

Type: Cargo ship. MMSI: 356345000.

Date/timePositionNaut miles runAvg speedWind from/ knotsBaromVisibWave heightAir tempDewpointWater temp
2015-Apr-17 20:19N 24°31' E 119°29'8512.5
2015-Apr-17 13:32N 23°39' E 118°16'1313.4
2015-Apr-17 12:33N 23°32' E 118°04'1413.9
2015-Apr-17 11:32N 23°25' E 117°50'4413.0
2015-Apr-17 08:09N 23°00' E 117°11'3112.0
2015-Apr-17 05:32N 22°43' E 116°42'1512.8
2015-Apr-17 04:24N 22°36' E 116°29'1213.4
2015-Apr-17 03:29N 22°29' E 116°18'10412.7
2015-Apr-16 19:18N 22°07' E 114°28'810.5
2015-Apr-16 18:33N 22°07' E 114°19'1110.8
2015-Apr-16 17:32N 22°08' E 114°08'1 0.1
2015-Apr-16 07:13N 22°09' E 114°08'5 7.0
2015-Apr-16 06:31N 22°09' E 114°13'1010.1
2015-Apr-16 05:33N 22°08' E 114°24'9 8.7
2015-Apr-16 04:31N 21°60' E 114°25'  
Track history (hours):
 
Tides and Currents Weather Stations Pressure Air Temp Water Temp Dewpoint Dewpoint Depression Visibility Wind Speed Wind Dir Waves Ship Positions

Dynawave

Last reported at 2015-Apr-17 20:19 UTC. Time now 2015-May-03 13:51 UTC.
Position N 24°31' E 119°29'.
Warning: this ship's position is 15 days out of date.

Length 209 m; draft 9.9 m.

Type: Cargo ship. MMSI: 356345000.

Date/timePositionNaut miles runAvg speedWind from/ knotsBaromVisibWave heightAir tempDewpointWater temp
2015-Apr-17 20:19N 24°31' E 119°29'8512.5
2015-Apr-17 13:32N 23°39' E 118°16'1313.4
2015-Apr-17 12:33N 23°32' E 118°04'1413.9
2015-Apr-17 11:32N 23°25' E 117°50'4413.0
2015-Apr-17 08:09N 23°00' E 117°11'3112.0
2015-Apr-17 05:32N 22°43' E 116°42'1512.8
2015-Apr-17 04:24N 22°36' E 116°29'1213.4
2015-Apr-17 03:29N 22°29' E 116°18'10412.7
2015-Apr-16 19:18N 22°07' E 114°28'810.5
2015-Apr-16 18:33N 22°07' E 114°19'1110.8
2015-Apr-16 17:32N 22°08' E 114°08'1 0.1
2015-Apr-16 07:13N 22°09' E 114°08'5 7.0
2015-Apr-16 06:31N 22°09' E 114°13'1010.1
2015-Apr-16 05:33N 22°08' E 114°24'9 8.7
2015-Apr-16 04:31N 21°60' E 114°25'  

Dump ship's entire track history